createdAt,value
2018-09-05T00:00:50.282Z,12.20
2018-09-05T00:01:50.297Z,14.40
2018-09-05T00:02:50.260Z,13.40
2018-09-05T00:03:50.249Z,13.60
2018-09-05T00:04:50.236Z,14.20
2018-09-05T00:05:50.229Z,14.20
2018-09-05T00:06:50.238Z,13.40
2018-09-05T00:07:50.203Z,13.60
2018-09-05T00:08:50.193Z,14.90
2018-09-05T00:09:50.179Z,13.40
2018-09-05T00:10:50.169Z,13.90
2018-09-05T00:11:50.183Z,14.10
2018-09-05T00:12:50.147Z,13.30
2018-09-05T00:13:50.135Z,14.20
2018-09-05T00:14:50.126Z,13.20
2018-09-05T00:15:50.114Z,13.20
2018-09-05T00:16:50.128Z,14.00
2018-09-05T00:17:50.091Z,13.20
2018-09-05T00:18:50.081Z,12.50
2018-09-05T00:19:50.067Z,12.60
2018-09-05T00:20:50.059Z,13.30
2018-09-05T00:21:50.069Z,14.50
2018-09-05T00:22:50.033Z,14.60
2018-09-05T00:23:50.024Z,13.40
2018-09-05T00:24:50.013Z,13.40
2018-09-05T00:25:49.999Z,14.10
2018-09-05T00:26:50.013Z,14.10
2018-09-05T00:27:49.976Z,14.00
2018-09-05T00:28:49.965Z,12.50
2018-09-05T00:29:49.955Z,13.50
2018-09-05T00:30:49.944Z,13.10
2018-09-05T00:31:49.955Z,14.00
2018-09-05T00:32:49.920Z,13.90
2018-09-05T00:33:49.908Z,13.90
2018-09-05T00:34:49.899Z,13.10
2018-09-05T00:35:49.886Z,13.60
2018-09-05T00:36:49.898Z,13.30
2018-09-05T00:37:49.862Z,13.70
2018-09-05T00:38:49.851Z,13.50
2018-09-05T00:39:49.841Z,13.90
2018-09-05T00:40:49.829Z,13.10
2018-09-05T00:41:49.843Z,12.80
2018-09-05T00:42:49.809Z,12.90
2018-09-05T00:43:49.796Z,12.20
2018-09-05T00:44:49.783Z,12.90
2018-09-05T00:45:49.773Z,12.40
2018-09-05T00:46:49.763Z,13.70
2018-09-05T00:47:49.772Z,12.80
2018-09-05T00:48:49.739Z,13.90
2018-09-05T00:49:49.728Z,12.70
2018-09-05T00:50:49.719Z,13.20
2018-09-05T00:51:49.707Z,13.40
2018-09-05T00:52:49.717Z,13.00
2018-09-05T00:53:49.682Z,13.10
2018-09-05T00:54:49.672Z,12.60
2018-09-05T00:55:49.659Z,13.40
2018-09-05T00:56:49.650Z,13.20
2018-09-05T00:57:49.660Z,12.70
2018-09-05T00:58:49.627Z,13.10
2018-09-05T00:59:49.616Z,12.80
2018-09-05T01:00:49.604Z,12.70
2018-09-05T01:01:49.592Z,12.80
2018-09-05T01:02:49.605Z,13.10
2018-09-05T01:03:49.570Z,12.80
2018-09-05T01:04:49.564Z,12.70
2018-09-05T01:05:49.551Z,13.00
2018-09-05T01:06:49.539Z,12.90
2018-09-05T01:07:49.549Z,11.70
2018-09-05T01:08:49.514Z,12.50
2018-09-05T01:09:49.502Z,13.70
2018-09-05T01:10:49.493Z,12.60
2018-09-05T01:11:49.479Z,12.60
2018-09-05T01:12:49.499Z,13.40
2018-09-05T01:13:49.459Z,13.30
2018-09-05T01:14:49.485Z,13.20
2018-09-05T01:15:49.434Z,13.00
2018-09-05T01:16:49.424Z,12.00
2018-09-05T01:17:49.436Z,12.80
2018-09-05T01:18:49.402Z,12.50
2018-09-05T01:19:49.390Z,12.40
2018-09-05T01:20:49.383Z,12.10
2018-09-05T01:21:49.369Z,12.40
2018-09-05T01:22:49.379Z,12.50
2018-09-05T01:23:49.345Z,12.00
2018-09-05T01:24:49.334Z,12.80
2018-09-05T01:25:49.322Z,12.70
2018-09-05T01:26:49.312Z,12.40
2018-09-05T01:27:49.325Z,12.60
2018-09-05T01:28:49.298Z,12.90
2018-09-05T01:29:49.278Z,13.10
2018-09-05T01:30:49.267Z,12.30
2018-09-05T01:31:49.255Z,12.90
2018-09-05T01:32:49.270Z,13.00
2018-09-05T01:33:49.236Z,12.90
2018-09-05T01:34:49.222Z,12.20
2018-09-05T01:35:49.215Z,12.80
2018-09-05T01:36:49.199Z,12.70
2018-09-05T01:37:49.213Z,12.40
2018-09-05T01:38:49.179Z,12.70
2018-09-05T01:39:49.168Z,13.00
2018-09-05T01:40:49.154Z,12.10
2018-09-05T01:41:49.142Z,12.60
2018-09-05T01:42:49.158Z,12.90
2018-09-05T01:43:49.122Z,11.90
2018-09-05T01:44:49.110Z,11.80
2018-09-05T01:45:49.100Z,12.70
2018-09-05T01:46:49.088Z,12.40
2018-09-05T01:47:49.100Z,12.70
2018-09-05T01:48:49.065Z,12.60
2018-09-05T01:49:49.053Z,12.50
2018-09-05T01:50:49.043Z,12.90
2018-09-05T01:51:49.032Z,12.50
2018-09-05T01:52:49.043Z,12.60
2018-09-05T01:53:49.009Z,12.60
2018-09-05T01:54:48.998Z,12.90
2018-09-05T01:55:48.988Z,12.40
2018-09-05T01:56:48.975Z,12.30
2018-09-05T01:57:48.986Z,12.20
2018-09-05T01:58:48.954Z,13.00
2018-09-05T01:59:48.943Z,12.80
2018-09-05T02:00:48.930Z,12.40
2018-09-05T02:01:48.920Z,12.00
2018-09-05T02:02:48.935Z,11.80
2018-09-05T02:03:48.897Z,12.30
2018-09-05T02:04:48.886Z,12.50
2018-09-05T02:05:48.875Z,12.00
2018-09-05T02:06:48.865Z,13.20
2018-09-05T02:07:48.874Z,12.70
2018-09-05T02:08:48.840Z,12.60
2018-09-05T02:09:48.830Z,12.40
2018-09-05T02:10:48.817Z,12.00
2018-09-05T02:11:48.811Z,12.10
2018-09-05T02:12:48.820Z,12.80
2018-09-05T02:13:48.786Z,12.20
2018-09-05T02:14:48.772Z,12.60
2018-09-05T02:15:48.762Z,13.00
2018-09-05T02:16:48.750Z,12.20
2018-09-05T02:17:48.764Z,13.20
2018-09-05T02:18:48.728Z,13.50
2018-09-05T02:19:48.718Z,12.40
2018-09-05T02:20:48.706Z,13.10
2018-09-05T02:21:48.700Z,12.50
2018-09-05T02:22:48.708Z,12.30
2018-09-05T02:23:48.673Z,12.50
2018-09-05T02:24:48.661Z,12.10
2018-09-05T02:25:48.649Z,13.10
2018-09-05T02:26:48.637Z,12.90
2018-09-05T02:27:48.628Z,12.70
2018-09-05T02:28:48.640Z,12.20
2018-09-05T02:29:48.606Z,12.40
2018-09-05T02:30:48.592Z,13.30
2018-09-05T02:31:48.582Z,12.50
2018-09-05T02:32:48.598Z,12.30
2018-09-05T02:33:48.558Z,13.00
2018-09-05T02:34:48.551Z,12.60
2018-09-05T02:35:48.538Z,13.20
2018-09-05T02:36:48.525Z,12.10
2018-09-05T02:37:48.516Z,13.00
2018-09-05T02:38:48.529Z,12.10
2018-09-05T02:39:48.492Z,12.40
2018-09-05T02:40:48.528Z,12.50
2018-09-05T02:41:48.471Z,13.10
2018-09-05T02:42:48.460Z,13.00
2018-09-05T02:43:48.472Z,12.30
2018-09-05T02:44:48.437Z,12.80
2018-09-05T02:45:48.425Z,12.90
2018-09-05T02:46:48.414Z,12.20
2018-09-05T02:47:48.405Z,13.00
2018-09-05T02:48:48.416Z,13.40
2018-09-05T02:49:48.380Z,12.90
2018-09-05T02:50:48.368Z,12.30
2018-09-05T02:51:48.361Z,12.80
2018-09-05T02:52:48.350Z,12.80
2018-09-05T02:53:48.358Z,12.50
2018-09-05T02:54:48.324Z,13.20
2018-09-05T02:55:48.312Z,12.20
2018-09-05T02:56:48.304Z,12.60
2018-09-05T02:57:48.292Z,12.80
2018-09-05T02:58:48.303Z,13.00
2018-09-05T02:59:48.271Z,12.50
2018-09-05T03:00:48.257Z,13.40
2018-09-05T03:01:48.251Z,12.40
2018-09-05T03:02:48.233Z,12.90
2018-09-05T03:03:48.245Z,12.30
2018-09-05T03:04:48.212Z,12.60
2018-09-05T03:05:48.201Z,13.60
2018-09-05T03:06:48.192Z,13.40
2018-09-05T03:07:48.177Z,13.40
2018-09-05T03:08:48.192Z,13.70
2018-09-05T03:09:48.155Z,12.90
2018-09-05T03:10:48.145Z,13.30
2018-09-05T03:11:48.133Z,13.90
2018-09-05T03:12:48.124Z,13.00
2018-09-05T03:13:48.135Z,13.80
2018-09-05T03:14:48.104Z,13.30
2018-09-05T03:15:48.089Z,13.60
2018-09-05T03:16:48.077Z,13.60
2018-09-05T03:17:48.066Z,13.10
2018-09-05T03:18:48.079Z,13.10
2018-09-05T03:19:48.043Z,13.70
2018-09-05T03:20:48.033Z,13.60
2018-09-05T03:21:48.062Z,12.20
2018-09-05T03:22:48.009Z,13.30
2018-09-05T03:23:48.022Z,13.20
2018-09-05T03:24:47.986Z,13.00
2018-09-05T03:25:47.982Z,13.10
2018-09-05T03:26:47.965Z,13.30
2018-09-05T03:27:47.968Z,13.50
2018-09-05T03:28:47.966Z,14.50
2018-09-05T03:29:47.930Z,12.10
2018-09-05T03:30:47.922Z,14.00
2018-09-05T03:31:47.909Z,13.70
2018-09-05T03:32:47.998Z,14.10
2018-09-05T03:33:47.911Z,13.00
2018-09-05T03:34:47.876Z,15.00
2018-09-05T03:35:47.864Z,13.30
2018-09-05T03:36:47.853Z,14.20
2018-09-05T03:37:47.845Z,13.10
2018-09-05T03:38:47.852Z,13.60
2018-09-05T03:39:47.820Z,14.00
2018-09-05T03:40:47.808Z,13.90
2018-09-05T03:41:47.797Z,14.20
2018-09-05T03:42:47.786Z,13.90
2018-09-05T03:43:47.799Z,13.40
2018-09-05T03:44:47.763Z,13.80
2018-09-05T03:45:47.752Z,13.10
2018-09-05T03:46:47.740Z,13.50
2018-09-05T03:47:47.731Z,13.50
2018-09-05T03:48:47.744Z,13.70
2018-09-05T03:49:47.766Z,13.80
2018-09-05T03:50:47.697Z,13.70
2018-09-05T03:51:47.686Z,13.10
2018-09-05T03:52:47.674Z,13.70
2018-09-05T03:53:47.686Z,13.90
2018-09-05T03:54:47.651Z,14.20
2018-09-05T03:55:47.640Z,13.80
2018-09-05T03:56:47.629Z,14.90
2018-09-05T03:57:47.617Z,14.10
2018-09-05T03:58:47.631Z,13.60
2018-09-05T03:59:47.596Z,13.90
2018-09-05T04:00:47.583Z,14.40
2018-09-05T04:01:47.572Z,13.90
2018-09-05T04:02:47.561Z,13.50
2018-09-05T04:03:47.573Z,13.60
2018-09-05T04:04:47.539Z,14.10
2018-09-05T04:05:47.526Z,13.20
2018-09-05T04:06:47.517Z,12.70
2018-09-05T04:07:47.508Z,13.00
2018-09-05T04:08:47.519Z,13.30
2018-09-05T04:09:47.484Z,13.00
2018-09-05T04:10:47.473Z,12.70
2018-09-05T04:11:47.460Z,12.70
2018-09-05T04:12:47.449Z,12.80
2018-09-05T04:13:47.440Z,12.60
2018-09-05T04:14:47.453Z,12.60
2018-09-05T04:15:47.416Z,12.80
2018-09-05T04:16:47.404Z,13.10
2018-09-05T04:17:47.395Z,13.10
2018-09-05T04:18:47.385Z,13.40
2018-09-05T04:19:47.396Z,13.10
2018-09-05T04:20:47.362Z,13.30
2018-09-05T04:21:47.350Z,13.30
2018-09-05T04:22:47.341Z,13.10
2018-09-05T04:23:47.330Z,13.20
2018-09-05T04:24:47.338Z,13.30
2018-09-05T04:25:47.303Z,12.80
2018-09-05T04:26:47.295Z,12.50
2018-09-05T04:27:47.281Z,13.20
2018-09-05T04:28:47.271Z,12.70
2018-09-05T04:29:47.307Z,12.60
2018-09-05T04:30:47.249Z,13.20
2018-09-05T04:31:47.238Z,13.30
2018-09-05T04:32:47.225Z,14.00
2018-09-05T04:33:47.225Z,13.90
2018-09-05T04:34:47.227Z,13.90
2018-09-05T04:35:47.195Z,13.90
2018-09-05T04:36:47.184Z,13.20
2018-09-05T04:37:47.172Z,13.20
2018-09-05T04:38:47.160Z,13.10
2018-09-05T04:39:47.169Z,12.80
2018-09-05T04:40:47.137Z,12.80
2018-09-05T04:41:47.131Z,13.40
2018-09-05T04:42:47.115Z,13.00
2018-09-05T04:43:47.101Z,12.40
2018-09-05T04:44:47.119Z,13.00
2018-09-05T04:45:47.082Z,13.20
2018-09-05T04:46:47.069Z,13.00
2018-09-05T04:47:47.057Z,13.70
2018-09-05T04:48:47.045Z,13.00
2018-09-05T04:49:47.057Z,13.30
2018-09-05T04:50:47.022Z,13.30
2018-09-05T04:51:47.013Z,13.20
2018-09-05T04:52:47.128Z,13.50
2018-09-05T04:53:46.991Z,13.10
2018-09-05T04:54:47.009Z,13.30
2018-09-05T04:55:46.968Z,13.30
2018-09-05T04:56:46.956Z,13.30
2018-09-05T04:57:46.947Z,14.40
2018-09-05T04:58:46.937Z,13.30
2018-09-05T04:59:46.944Z,12.80
2018-09-05T05:00:46.913Z,13.10
2018-09-05T05:01:46.901Z,13.50
2018-09-05T05:02:46.890Z,13.30
2018-09-05T05:03:46.879Z,13.80
2018-09-05T05:04:46.892Z,13.50
2018-09-05T05:05:46.936Z,14.70
2018-09-05T05:06:46.844Z,14.60
2018-09-05T05:07:46.834Z,13.90
2018-09-05T05:08:46.824Z,13.10
2018-09-05T05:09:46.838Z,13.70
2018-09-05T05:10:46.801Z,14.40
2018-09-05T05:11:46.792Z,13.80
2018-09-05T05:12:46.780Z,13.60
2018-09-05T05:13:46.815Z,14.20
2018-09-05T05:14:46.785Z,14.00
2018-09-05T05:15:46.745Z,14.40
2018-09-05T05:16:46.735Z,13.70
2018-09-05T05:17:46.723Z,13.50
2018-09-05T05:18:46.711Z,12.80
2018-09-05T05:19:46.724Z,13.70
2018-09-05T05:20:46.689Z,13.50
2018-09-05T05:21:46.678Z,13.90
2018-09-05T05:22:46.665Z,14.00
2018-09-05T05:23:46.660Z,13.80
2018-09-05T05:24:46.668Z,13.90
2018-09-05T05:25:46.632Z,13.60
2018-09-05T05:26:46.621Z,13.90
2018-09-05T05:27:46.608Z,13.90
2018-09-05T05:28:46.598Z,13.50
2018-09-05T05:29:46.613Z,14.20
2018-09-05T05:30:46.575Z,14.50
2018-09-05T05:31:46.565Z,13.30
2018-09-05T05:32:46.624Z,13.80
2018-09-05T05:33:46.543Z,13.60
2018-09-05T05:34:46.554Z,13.70
2018-09-05T05:35:46.523Z,14.10
2018-09-05T05:36:46.509Z,13.70
2018-09-05T05:37:46.505Z,13.50
2018-09-05T05:38:46.491Z,13.90
2018-09-05T05:39:46.500Z,13.90
2018-09-05T05:40:46.463Z,13.90
2018-09-05T05:41:46.459Z,13.70
2018-09-05T05:42:46.441Z,13.60
2018-09-05T05:43:46.432Z,13.90
2018-09-05T05:44:46.443Z,14.80
2018-09-05T05:45:46.411Z,13.90
2018-09-05T05:46:46.508Z,12.70
2018-09-05T05:47:46.386Z,13.60
2018-09-05T05:48:46.373Z,12.10
2018-09-05T05:49:46.387Z,13.20
2018-09-05T05:50:46.351Z,15.50
2018-09-05T05:51:46.342Z,14.20
2018-09-05T05:52:46.329Z,14.00
2018-09-05T05:53:46.316Z,13.20
2018-09-05T05:54:46.330Z,14.80
2018-09-05T05:55:46.296Z,14.20
2018-09-05T05:56:46.286Z,15.40
2018-09-05T05:57:46.272Z,14.90
2018-09-05T05:58:46.261Z,15.60
2018-09-05T05:59:46.253Z,14.40
2018-09-05T06:00:46.321Z,14.30
2018-09-05T06:01:46.229Z,13.90
2018-09-05T06:02:46.246Z,14.30
2018-09-05T06:03:46.206Z,14.80
2018-09-05T06:04:46.197Z,13.70
2018-09-05T06:05:46.208Z,14.70
2018-09-05T06:06:46.170Z,15.40
2018-09-05T06:07:46.160Z,14.70
2018-09-05T06:08:46.148Z,14.20
2018-09-05T06:09:46.140Z,16.90
2018-09-05T06:10:46.150Z,15.30
2018-09-05T06:11:46.115Z,15.80
2018-09-05T06:12:46.104Z,14.70
2018-09-05T06:13:46.093Z,14.40
2018-09-05T06:14:46.085Z,14.90
2018-09-05T06:15:46.096Z,15.60
2018-09-05T06:16:46.059Z,15.50
2018-09-05T06:17:46.190Z,15.20
2018-09-05T06:18:46.037Z,14.50
2018-09-05T06:19:46.025Z,13.60
2018-09-05T06:20:46.037Z,14.40
2018-09-05T06:21:46.001Z,15.50
2018-09-05T06:22:45.994Z,15.40
2018-09-05T06:23:45.987Z,14.90
2018-09-05T06:24:45.968Z,15.00
2018-09-05T06:25:45.981Z,14.50
2018-09-05T06:26:45.947Z,16.60
2018-09-05T06:27:45.962Z,16.30
2018-09-05T06:28:45.927Z,15.30
2018-09-05T06:29:45.913Z,14.60
2018-09-05T06:30:46.209Z,16.00
2018-09-05T06:31:45.891Z,16.00
2018-09-05T06:32:45.877Z,15.60
2018-09-05T06:33:45.866Z,15.30
2018-09-05T06:34:45.855Z,14.80
2018-09-05T06:35:45.867Z,16.70
2018-09-05T06:36:45.831Z,15.70
2018-09-05T06:37:45.819Z,15.40
2018-09-05T06:38:45.813Z,15.30
2018-09-05T06:39:45.796Z,16.90
2018-09-05T06:40:45.808Z,14.60
2018-09-05T06:41:45.777Z,15.40
2018-09-05T06:42:45.764Z,16.40
2018-09-05T06:43:45.753Z,15.10
2018-09-05T06:44:45.743Z,17.00
2018-09-05T06:45:45.732Z,14.60
2018-09-05T06:46:45.739Z,17.10
2018-09-05T06:47:45.707Z,14.60
2018-09-05T06:48:45.694Z,14.80
2018-09-05T06:49:45.687Z,14.40
2018-09-05T06:50:45.676Z,14.90
2018-09-05T06:51:45.685Z,15.40
2018-09-05T06:52:45.649Z,14.90
2018-09-05T06:53:45.639Z,16.00
2018-09-05T06:54:45.628Z,15.20
2018-09-05T06:55:45.617Z,17.10
2018-09-05T06:56:45.631Z,19.00
2018-09-05T06:57:45.594Z,14.00
2018-09-05T06:58:45.584Z,16.60
2018-09-05T06:59:45.573Z,15.40
2018-09-05T07:00:45.560Z,16.20
2018-09-05T07:01:45.574Z,16.40
2018-09-05T07:02:45.538Z,14.90
2018-09-05T07:03:45.533Z,15.60
2018-09-05T07:04:45.521Z,16.30
2018-09-05T07:05:45.504Z,14.70
2018-09-05T07:06:45.538Z,16.10
2018-09-05T07:07:45.481Z,15.50
2018-09-05T07:08:45.471Z,16.40
2018-09-05T07:09:45.459Z,17.70
2018-09-05T07:10:45.448Z,19.00
2018-09-05T07:11:45.460Z,16.20
2018-09-05T07:12:45.425Z,17.50
2018-09-05T07:13:45.414Z,14.80
2018-09-05T07:14:45.403Z,46.40
2018-09-05T07:15:45.391Z,21.40
2018-09-05T07:16:45.404Z,22.20
2018-09-05T07:17:45.368Z,20.40
2018-09-05T07:18:45.359Z,20.40
2018-09-05T07:19:45.346Z,22.20
2018-09-05T07:20:45.336Z,16.20
2018-09-05T07:21:45.346Z,15.40
2018-09-05T07:22:45.313Z,13.00
2018-09-05T07:23:45.302Z,13.70
2018-09-05T07:24:45.295Z,12.80
2018-09-05T07:25:45.285Z,14.40
2018-09-05T07:26:45.294Z,12.50
2018-09-05T07:27:45.267Z,13.10
2018-09-05T07:28:45.244Z,13.90
2018-09-05T07:29:45.234Z,16.80
2018-09-05T07:30:45.305Z,14.90
2018-09-05T07:31:45.239Z,13.60
2018-09-05T07:32:45.200Z,14.50
2018-09-05T07:33:45.190Z,17.90
2018-09-05T07:34:45.178Z,17.80
2018-09-05T07:35:45.247Z,16.20
2018-09-05T07:36:45.180Z,16.20
2018-09-05T07:37:45.144Z,15.20
2018-09-05T07:38:45.134Z,16.90
2018-09-05T07:39:45.122Z,13.80
2018-09-05T07:40:45.112Z,20.70
2018-09-05T07:41:45.465Z,14.30
2018-09-05T07:42:45.360Z,14.50
2018-09-05T07:43:45.148Z,14.00
2018-09-05T07:44:45.140Z,15.00
2018-09-05T07:45:45.058Z,16.70
2018-09-05T07:46:45.044Z,12.80
2018-09-05T07:47:45.134Z,13.70
2018-09-05T07:48:45.022Z,12.40
2018-09-05T07:49:45.010Z,13.50
2018-09-05T07:50:45.132Z,16.10
2018-09-05T07:51:44.990Z,14.20
2018-09-05T07:52:45.001Z,13.70
2018-09-05T07:53:44.965Z,13.90
2018-09-05T07:54:44.960Z,12.90
2018-09-05T07:55:44.942Z,14.60
2018-09-05T07:56:44.933Z,16.20
2018-09-05T07:57:44.942Z,15.90
2018-09-05T07:58:44.908Z,14.80
2018-09-05T07:59:44.898Z,16.10
2018-09-05T08:00:44.886Z,13.70
2018-09-05T08:01:44.876Z,13.40
2018-09-05T08:02:44.905Z,17.40
2018-09-05T08:03:44.855Z,14.70
2018-09-05T08:04:44.840Z,17.50
2018-09-05T08:05:44.830Z,16.70
2018-09-05T08:06:44.819Z,18.30
2018-09-05T08:07:44.831Z,15.70
2018-09-05T08:08:44.797Z,14.00
2018-09-05T08:09:44.785Z,14.90
2018-09-05T08:10:44.774Z,15.80
2018-09-05T08:11:44.767Z,13.40
2018-09-05T08:12:44.775Z,14.60
2018-09-05T08:13:44.740Z,14.50
2018-09-05T08:14:44.729Z,15.50
2018-09-05T08:15:44.717Z,14.80
2018-09-05T08:16:44.707Z,16.60
2018-09-05T08:17:44.732Z,12.90
2018-09-05T08:18:44.682Z,16.00
2018-09-05T08:19:44.673Z,22.50
2018-09-05T08:20:44.664Z,55.30
2018-09-05T08:21:44.648Z,22.20
2018-09-05T08:22:44.661Z,20.70
2018-09-05T08:23:44.627Z,20.20
2018-09-05T08:24:44.616Z,21.30
2018-09-05T08:25:44.604Z,20.40
2018-09-05T08:26:44.595Z,19.30
2018-09-05T08:27:44.608Z,22.70
2018-09-05T08:28:44.594Z,16.40
2018-09-05T08:29:44.560Z,16.40
2018-09-05T08:30:44.550Z,18.10
2018-09-05T08:31:44.542Z,16.20
2018-09-05T08:32:44.552Z,16.00
2018-09-05T08:33:44.517Z,15.20
2018-09-05T08:34:44.574Z,17.90
2018-09-05T08:35:44.788Z,17.70
2018-09-05T08:36:44.632Z,17.10
2018-09-05T08:37:44.716Z,18.40
2018-09-05T08:38:44.476Z,16.50
2018-09-05T08:39:44.448Z,19.90
2018-09-05T08:40:44.441Z,13.30
2018-09-05T08:41:44.512Z,14.60
2018-09-05T08:42:44.494Z,13.50
2018-09-05T08:43:44.588Z,16.10
2018-09-05T08:44:44.594Z,17.00
2018-09-05T08:45:44.622Z,21.60
2018-09-05T08:46:44.430Z,22.40
2018-09-05T08:47:44.381Z,18.60
2018-09-05T08:48:44.483Z,17.10
2018-09-05T08:49:44.341Z,18.10
2018-09-05T08:50:44.329Z,22.60
2018-09-05T08:51:44.315Z,24.50
2018-09-05T08:52:44.387Z,24.30
2018-09-05T08:53:44.298Z,22.30
2018-09-05T08:54:44.281Z,22.60
2018-09-05T08:55:44.290Z,23.50
2018-09-05T08:56:44.258Z,22.60
2018-09-05T08:57:44.270Z,20.90
2018-09-05T08:58:44.277Z,20.90
2018-09-05T08:59:44.226Z,21.00
2018-09-05T09:00:44.213Z,20.90
2018-09-05T09:01:44.205Z,20.60
2018-09-05T09:02:44.219Z,20.50
2018-09-05T09:03:44.183Z,21.10
2018-09-05T09:04:44.346Z,21.20
2018-09-05T09:05:44.158Z,20.90
2018-09-05T09:06:44.147Z,21.20
2018-09-05T09:07:44.157Z,20.30
2018-09-05T09:08:44.720Z,20.30
2018-09-05T09:09:44.113Z,20.90
2018-09-05T09:10:44.104Z,21.80
2018-09-05T09:11:44.107Z,20.60
2018-09-05T09:12:44.102Z,22.70
2018-09-05T09:13:44.069Z,33.00
2018-09-05T09:14:44.061Z,27.80
2018-09-05T09:15:44.046Z,28.50
2018-09-05T09:16:44.035Z,24.80
2018-09-05T09:17:44.026Z,21.70
2018-09-05T09:18:44.037Z,21.00
2018-09-05T09:19:44.002Z,19.70
2018-09-05T09:20:43.990Z,21.20
2018-09-05T09:21:43.979Z,19.90
2018-09-05T09:22:43.969Z,18.60
2018-09-05T09:23:43.980Z,19.30
2018-09-05T09:24:43.945Z,19.20
2018-09-05T09:25:43.934Z,18.40
2018-09-05T09:26:43.921Z,18.90
2018-09-05T09:27:43.911Z,20.50
2018-09-05T09:28:43.924Z,18.50
2018-09-05T09:29:43.890Z,17.20
2018-09-05T09:30:43.876Z,19.50
2018-09-05T09:31:43.864Z,16.70
2018-09-05T09:32:43.855Z,17.40
2018-09-05T09:33:43.922Z,16.80
2018-09-05T09:34:43.832Z,17.50
2018-09-05T09:35:43.821Z,18.20
2018-09-05T09:36:43.809Z,16.10
2018-09-05T09:37:43.901Z,18.90
2018-09-05T09:38:43.785Z,16.30
2018-09-05T09:39:43.775Z,17.00
2018-09-05T09:40:43.765Z,16.10
2018-09-05T09:41:43.755Z,16.60
2018-09-05T09:42:43.741Z,17.30
2018-09-05T09:43:43.757Z,16.20
2018-09-05T09:44:43.720Z,16.60
2018-09-05T09:45:43.707Z,17.00
2018-09-05T09:46:43.771Z,15.70
2018-09-05T09:47:43.686Z,16.10
2018-09-05T09:48:43.696Z,15.40
2018-09-05T09:49:43.665Z,16.80
2018-09-05T09:50:43.651Z,16.00
2018-09-05T09:51:43.640Z,16.60
2018-09-05T09:52:43.630Z,17.10
2018-09-05T09:53:43.652Z,17.50
2018-09-05T09:54:43.605Z,15.50
2018-09-05T09:55:43.594Z,15.90
2018-09-05T09:56:43.637Z,15.70
2018-09-05T09:57:43.573Z,16.10
2018-09-05T09:58:43.585Z,15.40
2018-09-05T09:59:43.550Z,15.90
2018-09-05T10:00:43.540Z,15.70
2018-09-05T10:01:43.528Z,16.20
2018-09-05T10:02:43.517Z,15.80
2018-09-05T10:03:43.685Z,15.70
2018-09-05T10:04:43.498Z,16.30
2018-09-05T10:05:43.483Z,16.00
2018-09-05T10:06:43.502Z,15.90
2018-09-05T10:07:43.460Z,16.10
2018-09-05T10:08:43.471Z,16.30
2018-09-05T10:09:43.524Z,16.30
2018-09-05T10:10:43.556Z,15.40
2018-09-05T10:11:43.418Z,16.40
2018-09-05T10:12:43.404Z,15.50
2018-09-05T10:13:43.415Z,15.30
2018-09-05T10:14:43.385Z,15.40
2018-09-05T10:15:43.370Z,15.40
2018-09-05T10:16:43.406Z,15.80
2018-09-05T10:17:43.348Z,16.10
2018-09-05T10:18:43.360Z,15.40
2018-09-05T10:19:43.325Z,16.40
2018-09-05T10:20:43.314Z,16.60
2018-09-05T10:21:43.302Z,15.40
2018-09-05T10:22:43.369Z,14.80
2018-09-05T10:23:43.304Z,17.10
2018-09-05T10:24:43.269Z,17.40
2018-09-05T10:25:43.260Z,16.20
2018-09-05T10:26:43.247Z,16.60
2018-09-05T10:27:43.236Z,16.40
2018-09-05T10:28:43.249Z,15.00
2018-09-05T10:29:43.214Z,15.90
2018-09-05T10:30:43.201Z,17.10
2018-09-05T10:31:43.209Z,16.80
2018-09-05T10:32:43.180Z,17.10
2018-09-05T10:33:43.198Z,16.30
2018-09-05T10:34:43.157Z,16.70
2018-09-05T10:35:43.146Z,16.70
2018-09-05T10:36:43.136Z,16.90
2018-09-05T10:37:43.129Z,16.00
2018-09-05T10:38:43.136Z,17.10
2018-09-05T10:39:43.102Z,16.70
2018-09-05T10:40:43.092Z,16.20
2018-09-05T10:41:43.082Z,16.10
2018-09-05T10:42:43.068Z,16.30
2018-09-05T10:43:43.082Z,16.40
2018-09-05T10:44:43.056Z,17.20
2018-09-05T10:45:43.041Z,15.50
2018-09-05T10:46:43.027Z,16.70
2018-09-05T10:47:43.015Z,15.70
2018-09-05T10:48:43.027Z,16.00
2018-09-05T10:49:42.993Z,15.20
2018-09-05T10:50:42.984Z,16.50
2018-09-05T10:51:42.976Z,15.00
2018-09-05T10:52:42.960Z,15.80
2018-09-05T10:53:42.974Z,15.00
2018-09-05T10:54:42.939Z,14.50
2018-09-05T10:55:42.933Z,14.10
2018-09-05T10:56:42.919Z,14.40
2018-09-05T10:57:42.908Z,15.40
2018-09-05T10:58:42.898Z,14.70
2018-09-05T10:59:42.909Z,14.30
2018-09-05T11:00:42.874Z,14.40
2018-09-05T11:01:42.865Z,15.00
2018-09-05T11:02:42.852Z,14.10
2018-09-05T11:03:42.841Z,12.90
2018-09-05T11:04:42.854Z,14.30
2018-09-05T11:05:42.820Z,13.60
2018-09-05T11:06:42.809Z,14.70
2018-09-05T11:07:42.799Z,13.30
2018-09-05T11:08:42.788Z,13.80
2018-09-05T11:09:42.801Z,15.30
2018-09-05T11:10:42.781Z,14.70
2018-09-05T11:11:42.754Z,14.10
2018-09-05T11:12:42.742Z,13.50
2018-09-05T11:13:42.732Z,13.30
2018-09-05T11:14:42.748Z,14.10
2018-09-05T11:15:42.713Z,16.00
2018-09-05T11:16:42.698Z,15.80
2018-09-05T11:17:42.690Z,13.80
2018-09-05T11:18:42.677Z,13.30
2018-09-05T11:19:42.689Z,13.30
2018-09-05T11:20:42.654Z,13.80
2018-09-05T11:21:42.643Z,14.70
2018-09-05T11:22:42.632Z,12.40
2018-09-05T11:23:42.620Z,12.50
2018-09-05T11:24:42.636Z,13.00
2018-09-05T11:25:42.602Z,12.30
2018-09-05T11:26:42.588Z,13.60
2018-09-05T11:27:42.621Z,15.40
2018-09-05T11:28:42.564Z,12.10
2018-09-05T11:29:42.581Z,13.30
2018-09-05T11:30:42.545Z,12.00
2018-09-05T11:31:42.531Z,12.40
2018-09-05T11:32:42.519Z,12.60
2018-09-05T11:33:42.507Z,12.00
2018-09-05T11:34:42.519Z,12.50
2018-09-05T11:35:42.486Z,13.70
2018-09-05T11:36:42.473Z,13.10
2018-09-05T11:37:42.463Z,13.00
2018-09-05T11:38:42.451Z,12.90
2018-09-05T11:39:42.466Z,12.10
2018-09-05T11:40:42.431Z,12.10
2018-09-05T11:41:42.419Z,12.20
2018-09-05T11:42:42.408Z,12.30
2018-09-05T11:43:42.397Z,12.70
2018-09-05T11:44:42.408Z,13.00
2018-09-05T11:45:42.375Z,12.30
2018-09-05T11:46:42.362Z,12.60
2018-09-05T11:47:42.350Z,12.60
2018-09-05T11:48:42.340Z,12.00
2018-09-05T11:49:42.349Z,12.40
2018-09-05T11:50:42.316Z,12.50
2018-09-05T11:51:42.305Z,12.30
2018-09-05T11:52:42.293Z,13.90
2018-09-05T11:53:42.282Z,12.10
2018-09-05T11:54:42.296Z,12.50
2018-09-05T11:55:42.259Z,12.60
2018-09-05T11:56:42.248Z,12.60
2018-09-05T11:57:42.238Z,11.60
2018-09-05T11:58:42.224Z,12.90
2018-09-05T11:59:42.236Z,13.00
2018-09-05T12:00:42.203Z,13.50
2018-09-05T12:01:42.192Z,12.70
2018-09-05T12:02:42.178Z,12.80
2018-09-05T12:03:42.168Z,12.60
2018-09-05T12:04:42.179Z,12.60
2018-09-05T12:05:42.147Z,13.00
2018-09-05T12:06:42.132Z,11.30
2018-09-05T12:07:42.122Z,12.20
2018-09-05T12:08:42.111Z,12.00
2018-09-05T12:09:42.123Z,12.80
2018-09-05T12:10:42.087Z,11.90
2018-09-05T12:11:42.139Z,12.30
2018-09-05T12:12:42.064Z,12.00
2018-09-05T12:13:42.061Z,12.40
2018-09-05T12:14:42.071Z,13.50
2018-09-05T12:15:42.032Z,11.90
2018-09-05T12:16:42.023Z,12.10
2018-09-05T12:17:42.013Z,12.80
2018-09-05T12:18:42.001Z,11.70
2018-09-05T12:19:42.011Z,11.70
2018-09-05T12:20:41.977Z,14.40
2018-09-05T12:21:41.966Z,11.90
2018-09-05T12:22:41.956Z,11.60
2018-09-05T12:23:41.944Z,11.90
2018-09-05T12:24:41.935Z,11.20
2018-09-05T12:25:41.946Z,12.50
2018-09-05T12:26:41.913Z,12.20
2018-09-05T12:27:41.901Z,12.70
2018-09-05T12:28:41.894Z,13.00
2018-09-05T12:29:41.881Z,12.10
2018-09-05T12:30:41.891Z,12.50
2018-09-05T12:31:41.858Z,12.50
2018-09-05T12:32:41.851Z,12.40
2018-09-05T12:33:41.835Z,12.30
2018-09-05T12:34:41.826Z,11.90
2018-09-05T12:35:41.837Z,11.90
2018-09-05T12:36:41.804Z,12.90
2018-09-05T12:37:41.791Z,12.40
2018-09-05T12:38:41.781Z,12.80
2018-09-05T12:39:41.771Z,12.20
2018-09-05T12:40:41.782Z,12.10
2018-09-05T12:41:41.750Z,12.70
2018-09-05T12:42:41.735Z,13.10
2018-09-05T12:43:41.725Z,12.40
2018-09-05T12:44:41.775Z,12.40
2018-09-05T12:45:41.729Z,12.00
2018-09-05T12:46:41.693Z,11.70
2018-09-05T12:47:41.683Z,12.50
2018-09-05T12:48:41.672Z,12.30
2018-09-05T12:49:41.662Z,11.70
2018-09-05T12:50:41.671Z,12.60
2018-09-05T12:51:41.641Z,11.60
2018-09-05T12:52:41.629Z,12.50